Time;durP1;ratioP1;P1;durP2;ratioP2;P2;SDS_P1;SDS_P2;PMS_P1;PMS_P2;Temp;Humidity;BMP_temperature;BMP_pressure;BME280_temperature;BME280_humidity;BME280_pressure;Samples;Min_cycle;Max_cycle;Signal;HPM_P1;HPM_P2
2021/12/05 00:21:41;;;;;;;42.00;27.23;;;;;;;3.35;64.72;98771.97;4373263;32;33920;-56
2021/12/05 00:24:15;;;;;;;41.53;28.42;;;;;;;3.39;64.25;98762.22;4373298;32;34037;-55
2021/12/05 00:26:49;;;;;;;40.72;27.33;;;;;;;3.17;65.14;98767.63;4372118;32;34887;-56
2021/12/05 00:29:24;;;;;;;42.78;28.20;;;;;;;3.03;65.66;98770.91;4359189;32;34650;-55
2021/12/05 00:43:21;;;;;;;43.60;29.52;;;;;;;2.63;67.15;98771.91;4372562;32;34223;-56
2021/12/05 00:48:38;;;;;;;48.25;31.23;;;;;;;2.73;66.90;98773.16;4372556;32;33999;-56
2021/12/05 00:56:21;;;;;;;45.55;32.13;;;;;;;3.02;66.41;98765.75;4372767;32;34041;-55
2021/12/05 01:17:15;;;;;;;54.83;35.67;;;;;;;3.27;66.49;98765.41;4372871;32;34331;-56
2021/12/05 01:19:43;;;;;;;55.45;34.60;;;;;;;3.20;66.60;98764.88;4373372;32;34267;-55
2021/12/05 01:22:12;;;;;;;52.03;35.53;;;;;;;3.03;67.15;98754.41;4388260;32;33170;-56
2021/12/05 01:30:11;;;;;;;55.35;36.80;;;;;;;2.87;68.49;98755.12;4387791;32;33909;-56
2021/12/05 01:35:50;;;;;;;58.13;38.42;;;;;;;2.76;68.98;98749.56;4361524;32;35296;-56
2021/12/05 01:38:35;;;;;;;57.65;39.63;;;;;;;2.91;68.68;98741.03;4371083;32;34610;-55
2021/12/05 02:02:56;;;;;;;62.08;40.83;;;;;;;2.75;70.55;98743.50;4371555;32;34075;-56
2021/12/05 02:08:37;;;;;;;60.35;40.88;;;;;;;2.90;70.29;98733.28;4372768;32;32998;-56
2021/12/05 02:43:35;;;;;;;72.15;45.58;;;;;;;2.70;71.81;98695.94;4374252;32;34265;-57
2021/12/05 02:46:05;;;;;;;69.57;46.53;;;;;;;2.66;72.02;98683.16;4374392;32;34450;-56
2021/12/05 02:48:36;;;;;;;73.45;47.28;;;;;;;2.60;72.23;98701.66;4374033;32;33082;-56
2021/12/05 02:51:11;;;;;;;72.30;46.13;;;;;;;2.75;71.91;98685.28;4374474;32;33546;-56
2021/12/05 02:53:43;;;;;;;72.50;47.47;;;;;;;2.81;71.61;98684.16;4374280;32;34009;-56
2021/12/05 02:56:12;;;;;;;69.75;47.55;;;;;;;2.83;71.46;98697.97;4374438;32;34852;-56
2021/12/05 02:58:53;;;;;;;66.82;46.28;;;;;;;2.77;72.40;98691.28;4374440;32;33079;-56
2021/12/05 03:01:35;;;;;;;65.43;45.78;;;;;;;2.89;71.64;98690.72;4373881;32;34414;-57
2021/12/05 03:04:06;;;;;;;69.18;46.33;;;;;;;2.76;72.06;98689.59;4360228;32;33146;-56
2021/12/05 03:06:34;;;;;;;73.30;47.58;;;;;;;2.82;71.96;98704.94;4374401;32;34267;-56
2021/12/05 03:09:12;;;;;;;72.57;46.33;;;;;;;3.04;70.93;98691.72;4374053;32;33933;-56
2021/12/05 03:11:41;;;;;;;;;;;;;;;2.71;71.95;98700.22;4361288;32;32748;-56
2021/12/05 03:14:08;;;;;;;72.60;47.45;;;;;;;2.96;71.62;98697.31;4374176;32;34678;-56
2021/12/05 03:16:38;;;;;;;70.40;46.28;;;;;;;2.96;71.76;98699.91;4373822;32;35015;-57
2021/12/05 03:19:08;;;;;;;71.53;46.65;;;;;;;3.00;71.80;98707.59;4374112;32;33314;-56
2021/12/05 03:21:37;;;;;;;70.45;46.72;;;;;;;2.90;71.76;98695.00;4374126;32;33298;-56
2021/12/05 03:24:06;;;;;;;67.65;45.45;;;;;;;3.08;71.20;98701.09;4360528;32;33678;-56
2021/12/05 03:26:38;;;;;;;69.75;46.53;;;;;;;3.06;71.32;98689.87;4374047;32;34366;-57
2021/12/05 03:29:08;;;;;;;70.00;46.70;;;;;;;2.79;71.83;98692.03;4374065;32;33540;-57
2021/12/05 03:31:38;;;;;;;69.95;46.90;;;;;;;3.00;71.22;98707.59;4374006;32;33527;-56
2021/12/05 03:34:07;;;;;;;67.07;45.42;;;;;;;2.91;71.66;98717.56;4373864;32;34889;-56
2021/12/05 03:36:36;;;;;;;68.47;45.47;;;;;;;3.08;71.48;98715.88;4374033;32;35473;-56
2021/12/05 03:39:06;;;;;;;70.15;46.42;;;;;;;3.18;71.55;98711.94;4373822;32;33917;-57
2021/12/05 03:41:35;;;;;;;69.97;47.35;;;;;;;3.26;70.98;98709.78;4374131;32;35328;-56
2021/12/05 03:44:04;;;;;;;69.32;44.95;;;;;;;3.17;70.75;98709.41;4374152;32;34830;-56
2021/12/05 03:46:32;;;;;;;74.10;47.88;;;;;;;2.91;71.44;98704.53;4373994;32;34100;-56
2021/12/05 03:49:04;;;;;;;72.72;46.85;;;;;;;2.84;72.07;98700.50;4373143;32;33151;-56
2021/12/05 03:51:34;;;;;;;71.82;46.45;;;;;;;2.95;71.92;98707.84;4373790;32;34879;-56
2021/12/05 03:54:04;;;;;;;74.20;49.08;;;;;;;3.05;71.41;98701.25;4374073;32;34228;-56
2021/12/05 03:56:34;;;;;;;68.45;46.10;;;;;;;3.01;71.82;98693.66;4373996;32;33684;-56
2021/12/05 03:59:02;;;;;;;69.68;45.95;;;;;;;3.13;71.13;98700.88;4373715;32;34251;-56
2021/12/05 04:01:32;;;;;;;67.75;44.55;;;;;;;3.24;71.24;98701.19;4373964;32;34125;-57
2021/12/05 04:04:01;;;;;;;65.37;44.10;;;;;;;3.13;71.26;98706.09;4374055;32;34731;-56
2021/12/05 04:06:28;;;;;;;;;;;;;;;3.14;71.11;98695.59;4374118;32;33760;-57
2021/12/05 04:08:58;;;;;;;68.60;45.33;;;;;;;3.22;70.81;98694.34;4374093;32;34290;-56
2021/12/05 04:11:35;;;;;;;67.82;44.78;;;;;;;3.08;70.97;98705.47;4373750;32;33619;-56
2021/12/05 04:14:09;;;;;;;67.90;46.20;;;;;;;2.87;71.77;98705.59;4373787;32;34563;-56
2021/12/05 04:16:39;;;;;;;72.05;45.78;;;;;;;2.89;71.96;98695.94;4374114;32;33907;-56
2021/12/05 04:19:08;;;;;;;69.37;45.58;;;;;;;2.96;71.69;98696.47;4373932;32;33537;-57
2021/12/05 04:21:36;;;;;;;70.65;47.03;;;;;;;2.88;71.83;98696.84;4360682;32;33575;-56
2021/12/05 04:24:06;;;;;;;64.75;44.47;;;;;;;2.90;71.86;98699.38;4369954;32;35264;-57
2021/12/05 04:26:34;;;;;;;66.50;45.17;;;;;;;2.96;71.99;98706.91;4358848;32;33702;-58
2021/12/05 04:29:04;;;;;;;61.92;43.87;;;;;;;3.18;71.29;98708.47;4359186;32;33760;-57
2021/12/05 04:31:33;;;;;;;65.25;44.97;;;;;;;3.29;71.20;98704.41;4369069;32;32649;-56
2021/12/05 04:34:01;;;;;;;72.62;50.15;;;;;;;3.17;71.98;98701.56;4373826;32;34291;-57
2021/12/05 04:36:29;;;;;;;64.47;46.20;;;;;;;3.40;71.12;98706.50;4373614;32;34200;-56
2021/12/05 04:38:57;;;;;;;68.45;45.75;;;;;;;3.17;71.52;98710.22;4373418;32;34127;-57
2021/12/05 04:41:25;;;;;;;76.97;49.92;;;;;;;3.34;71.12;98712.03;4373225;32;33494;-56
2021/12/05 04:43:53;;;;;;;76.78;52.25;;;;;;;3.42;70.64;98709.03;4373563;32;34920;-56
2021/12/05 04:46:22;;;;;;;;;;;;;;;3.39;70.76;98703.97;4360539;32;34169;-57
2021/12/05 04:48:51;;;;;;;67.28;44.58;;;;;;;3.53;69.96;98697.13;4373889;32;33924;-57
2021/12/05 04:51:24;;;;;;;69.10;45.67;;;;;;;3.29;70.70;98695.75;4363938;32;33458;-57
2021/12/05 04:53:53;;;;;;;70.30;46.28;;;;;;;3.13;71.23;98696.50;4373591;32;34335;-56
2021/12/05 04:56:22;;;;;;;91.50;59.15;;;;;;;3.16;71.15;98700.72;4373726;32;34661;-57
2021/12/05 04:58:52;;;;;;;70.20;46.22;;;;;;;3.34;70.67;98696.38;4373804;32;33134;-56
2021/12/05 05:01:21;;;;;;;64.82;43.95;;;;;;;3.30;70.90;98700.88;4373364;32;34324;-56
2021/12/05 05:03:50;;;;;;;69.40;46.17;;;;;;;3.18;71.17;98704.13;4373894;32;35014;-56
2021/12/05 05:06:19;;;;;;;73.20;46.70;;;;;;;3.17;71.20;98688.53;4373391;32;34069;-56
2021/12/05 05:08:50;;;;;;;72.95;47.30;;;;;;;3.13;71.43;98693.03;4373421;32;33526;-57
2021/12/05 05:11:22;;;;;;;69.62;45.22;;;;;;;3.15;71.33;98683.37;4359153;32;33744;-57
2021/12/05 05:13:50;;;;;;;70.40;45.67;;;;;;;3.20;71.24;98696.19;4358525;32;34192;-57
2021/12/05 05:16:21;;;;;;;71.00;46.55;;;;;;;3.22;71.28;98700.44;4358567;32;35428;-57
2021/12/05 05:18:58;;;;;;;70.85;47.40;;;;;;;2.89;72.49;98703.75;4358446;32;33447;-56
2021/12/05 05:24:17;;;;;;;93.78;58.40;;;;;;;3.05;72.30;98705.63;4373354;32;34196;-56
2021/12/05 05:41:01;;;;;;;70.15;48.72;;;;;;;3.46;71.33;98721.84;4372973;32;34030;-56
2021/12/05 05:48:58;;;;;;;71.90;47.40;;;;;;;3.47;71.09;98713.09;4373097;32;34406;-57
2021/12/05 05:51:26;;;;;;;77.35;50.55;;;;;;;3.55;70.95;98703.13;4373265;32;33385;-57
2021/12/05 05:53:53;;;;;;;74.25;46.67;;;;;;;3.74;70.29;98699.56;4372655;32;33452;-56
2021/12/05 05:56:25;;;;;;;70.00;46.55;;;;;;;3.48;70.99;98698.28;4372866;32;34957;-57
2021/12/05 05:59:05;;;;;;;72.22;44.85;;;;;;;3.51;70.72;98703.38;4373018;32;34146;-56
2021/12/05 06:04:05;;;;;;;78.25;46.50;;;;;;;3.49;70.95;98713.87;4373021;32;33019;-57
2021/12/05 06:06:33;;;;;;;86.80;53.67;;;;;;;3.32;71.67;98716.47;4372546;32;34121;-57
2021/12/05 06:09:02;;;;;;;81.05;50.03;;;;;;;3.60;70.72;98722.94;4372643;32;32890;-57
2021/12/05 06:11:30;;;;;;;79.43;48.55;;;;;;;3.12;72.30;98728.72;4372095;32;34463;-56
2021/12/05 06:13:57;;;;;;;76.65;48.72;;;;;;;3.35;71.62;98722.41;4372367;32;33966;-56
2021/12/05 06:16:25;;;;;;;75.18;47.88;;;;;;;3.40;71.53;98716.94;4372636;32;34409;-57
2021/12/05 06:18:53;;;;;;;83.97;50.50;;;;;;;3.39;71.62;98724.84;4372771;32;34082;-56
2021/12/05 06:21:20;;;;;;;85.30;51.53;;;;;;;3.34;72.19;98730.28;4372872;32;33462;-57
2021/12/05 06:23:48;;;;;;;94.32;54.95;;;;;;;3.04;72.93;98733.44;4372085;32;33570;-56
2021/12/05 06:26:21;;;;;;;80.40;49.85;;;;;;;3.54;71.56;98734.50;4358416;32;35356;-57
2021/12/05 06:29:27;;;;;;;81.47;48.60;;;;;;;3.52;71.45;98734.59;4372559;32;34104;-56
2021/12/05 06:43:04;;;;;;;82.03;49.35;;;;;;;3.25;72.65;98723.75;4359111;32;33154;-57
2021/12/05 06:47:42;;;;;;;84.05;49.08;;;;;;;3.31;72.58;98730.44;4371400;32;35297;-57
2021/12/05 06:50:09;;;;;;;89.72;51.92;;;;;;;3.57;71.61;98726.53;4371743;32;34184;-57
2021/12/05 06:52:43;;;;;;;83.28;50.65;;;;;;;3.30;72.48;98742.63;4370990;32;33291;-57
2021/12/05 06:55:12;;;;;;;91.00;51.55;;;;;;;3.40;72.23;98750.03;4371264;32;34675;-57
2021/12/05 06:57:40;;;;;;;81.90;49.25;;;;;;;3.33;72.56;98754.69;4373353;32;34649;-57
2021/12/05 07:00:13;;;;;;;90.10;52.00;;;;;;;3.45;72.32;98755.84;4370706;32;34033;-57
2021/12/05 07:02:41;;;;;;;85.90;50.15;;;;;;;3.39;72.55;98758.75;4371020;32;34497;-57
2021/12/05 07:07:48;;;;;;;93.03;51.53;;;;;;;3.57;72.12;98759.59;4371246;32;34334;-57
2021/12/05 07:10:18;;;;;;;107.53;61.75;;;;;;;3.61;71.91;98767.22;4371149;32;34579;-57
2021/12/05 07:15:25;;;;;;;90.82;51.17;;;;;;;3.61;72.22;98756.78;4371484;32;33900;-57
2021/12/05 07:23:55;;;;;;;86.22;50.10;;;;;;;3.84;75.46;98770.44;4371776;32;33207;-57
2021/12/05 07:26:11;;;;;;;87.30;50.10;;;;;;;4.01;73.68;98767.81;4369785;32;33995;-57
2021/12/05 07:42:41;;;;;;;84.25;48.47;;;;;;;3.82;71.31;98770.53;4361255;32;33289;-57
2021/12/05 07:45:11;;;;;;;87.12;47.97;;;;;;;3.83;71.36;98779.22;4358380;32;33063;-57
2021/12/05 07:47:43;;;;;;;82.88;51.70;;;;;;;3.92;70.72;98776.97;4363081;32;33729;-58
2021/12/05 07:50:12;;;;;;;82.50;49.53;;;;;;;3.89;70.52;98786.72;4373311;32;34345;-57
2021/12/05 07:52:43;;;;;;;84.50;49.05;;;;;;;4.00;70.47;98779.19;4372489;32;34780;-57
2021/12/05 07:55:19;;;;;;;89.65;48.90;;;;;;;3.96;70.61;98776.84;4371123;32;33317;-57
2021/12/05 08:16:48;;;;;;;90.20;51.55;;;;;;;4.51;69.00;98782.63;4372261;32;33146;-56
2021/12/05 08:19:18;;;;;;;84.68;49.67;;;;;;;4.43;69.55;98783.97;4373152;32;33464;-56
2021/12/05 08:21:50;;;;;;;83.43;50.10;;;;;;;4.46;69.51;98792.50;4372372;32;35119;-57
2021/12/05 08:24:18;;;;;;;84.03;49.63;;;;;;;4.38;69.94;98788.59;4372619;32;34774;-57
2021/12/05 08:26:48;;;;;;;85.80;48.63;;;;;;;4.69;68.87;98788.66;4364666;32;33299;-57
2021/12/05 08:29:21;;;;;;;86.35;51.53;;;;;;;4.59;69.09;98784.84;4371637;32;35567;-56
2021/12/05 08:34:37;;;;;;;82.40;47.95;;;;;;;4.63;68.99;98793.38;4371835;32;33738;-57
2021/12/05 09:20:40;;;;;;;85.38;48.35;;;;;;;4.86;68.90;98799.97;4311699;33;35091;-56
2021/12/05 10:06:45;;;;;;;90.25;47.30;;;;;;;4.82;69.07;98751.37;4372842;32;33392;-54
2021/12/05 10:34:29;;;;;;;74.93;41.65;;;;;;;5.27;67.96;98748.00;4372448;32;34064;-54
2021/12/05 10:37:06;;;;;;;72.30;41.75;;;;;;;5.14;67.76;98733.91;4371245;32;34140;-54
2021/12/05 10:39:33;;;;;;;78.10;43.67;;;;;;;5.28;67.10;98740.97;4372413;32;34331;-54
2021/12/05 10:42:14;;;;;;;;;;;;;;;4.99;68.10;98738.22;4372771;32;33741;-54
2021/12/05 10:44:45;;;;;;;77.30;42.88;;;;;;;5.06;67.75;98736.09;4372148;32;34784;-54
2021/12/05 10:47:12;;;;;;;78.80;42.65;;;;;;;5.08;67.91;98726.41;4371807;32;33146;-54
2021/12/05 10:49:41;;;;;;;82.15;44.67;;;;;;;5.06;67.76;98720.37;4372173;32;34660;-54
2021/12/05 10:52:13;;;;;;;90.47;45.03;;;;;;;4.89;68.24;98727.41;4372123;32;33824;-54
2021/12/05 10:54:41;;;;;;;84.35;44.42;;;;;;;5.07;67.96;98724.69;4372170;32;34477;-54
2021/12/05 10:57:11;;;;;;;;;;;;;;;4.95;68.05;98725.41;4373603;32;34822;-54
2021/12/05 10:59:40;;;;;;;83.22;43.92;;;;;;;5.06;67.52;98715.16;4373768;32;33679;-54
2021/12/05 11:02:24;;;;;;;74.80;41.20;;;;;;;5.15;74.50;98727.72;4374326;32;34667;-54
2021/12/05 11:04:54;;;;;;;76.12;42.85;;;;;;;5.09;73.29;98720.22;4373144;32;35209;-54
2021/12/05 11:07:23;;;;;;;77.03;41.45;;;;;;;5.02;70.48;98717.12;4374302;32;33785;-54
2021/12/05 11:09:55;;;;;;;89.53;46.40;;;;;;;5.08;69.51;98708.09;4374273;32;33584;-53
2021/12/05 11:12:27;;;;;;;77.97;42.92;;;;;;;5.18;72.56;98714.47;4374118;32;33454;-54
2021/12/05 11:14:57;;;;;;;87.60;46.75;;;;;;;5.59;73.61;98706.00;4373631;32;34228;-54
2021/12/05 11:17:29;;;;;;;95.25;46.35;;;;;;;5.25;70.34;98713.22;4374004;32;33803;-54
2021/12/05 11:20:03;;;;;;;85.93;44.72;;;;;;;6.12;80.62;98706.37;4373778;32;32386;-53
2021/12/05 11:22:36;;;;;;;72.20;41.20;;;;;;;6.04;73.37;98706.00;4373659;32;34486;-54
2021/12/05 11:25:09;;;;;;;75.72;42.00;;;;;;;5.94;70.12;98710.94;4373629;32;34751;-54
2021/12/05 11:27:43;;;;;;;75.68;42.13;;;;;;;5.71;69.00;98715.75;4371955;32;34641;-54
2021/12/05 11:30:17;;;;;;;76.40;37.40;;;;;;;5.81;67.74;98720.44;4373790;32;33208;-54
2021/12/05 11:32:49;;;;;;;80.72;40.85;;;;;;;5.96;78.67;98722.19;4373780;32;33811;-54
2021/12/05 11:35:25;;;;;;;72.30;38.88;;;;;;;5.70;74.04;98708.84;4374131;32;34020;-54
2021/12/05 11:38:14;;;;;;;73.78;38.92;;;;;;;5.48;68.88;98709.22;4374230;32;34408;-54
2021/12/05 11:41:04;;;;;;;67.65;38.08;;;;;;;5.67;67.67;98714.25;4373846;32;33801;-54
2021/12/05 11:43:47;;;;;;;71.25;37.63;;;;;;;5.46;67.29;98718.13;4373834;32;33877;-54
2021/12/05 11:46:33;;;;;;;70.22;36.83;;;;;;;5.33;67.07;98710.12;4373214;32;35055;-54
2021/12/05 11:49:08;;;;;;;72.00;37.60;;;;;;;5.21;66.84;98716.91;4373093;32;34874;-54
2021/12/05 11:51:41;;;;;;;74.97;41.20;;;;;;;5.23;67.12;98714.22;4373264;32;33193;-53
2021/12/05 11:54:31;;;;;;;70.12;38.22;;;;;;;5.04;67.82;98714.41;4373784;32;34317;-53
2021/12/05 11:57:24;;;;;;;75.03;40.38;;;;;;;5.17;67.48;98711.94;4373791;32;34546;-53
2021/12/05 11:59:57;;;;;;;66.72;37.78;;;;;;;5.21;67.20;98709.06;4373303;32;33875;-54
2021/12/05 12:02:37;;;;;;;78.62;41.35;;;;;;;5.15;67.61;98717.25;4373006;32;33238;-54
2021/12/05 12:05:19;;;;;;;70.43;40.33;;;;;;;4.90;68.21;98712.56;4373978;32;33572;-54
2021/12/05 12:08:05;;;;;;;70.68;39.78;;;;;;;4.92;67.45;98706.34;4373250;32;34223;-54
2021/12/05 12:10:39;;;;;;;70.20;39.97;;;;;;;4.71;68.46;98699.66;4372114;32;33771;-54
2021/12/05 12:13:22;;;;;;;74.57;40.60;;;;;;;4.56;69.36;98711.81;4373741;32;34043;-55
2021/12/05 12:15:58;;;;;;;72.07;40.58;;;;;;;4.74;68.88;98720.41;4385682;32;34635;-54
2021/12/05 12:18:33;;;;;;;73.87;41.05;;;;;;;4.79;68.86;98725.38;4388159;32;34228;-54
2021/12/05 12:21:13;;;;;;;70.50;38.53;;;;;;;5.01;76.96;98725.88;4373941;32;33759;-55
2021/12/05 12:23:41;;;;;;;69.65;37.85;;;;;;;4.97;73.04;98720.94;4376845;32;34575;-54
2021/12/05 12:26:10;;;;;;;71.45;38.72;;;;;;;4.38;70.76;98716.28;4379898;32;35268;-54
2021/12/05 12:28:38;;;;;;;72.90;38.67;;;;;;;4.30;70.81;98721.03;4377699;32;34019;-54
2021/12/05 12:31:12;;;;;;;;;;;;;;;4.47;69.87;98720.16;4372766;32;34194;-54
2021/12/05 12:33:49;;;;;;;76.03;39.75;;;;;;;4.50;70.00;98728.66;4372881;32;33198;-54
2021/12/05 12:36:40;;;;;;;73.80;40.75;;;;;;;4.29;70.63;98709.75;4373270;32;33610;-54
2021/12/05 12:39:16;;;;;;;78.90;42.67;;;;;;;4.07;71.45;98699.59;4372250;32;35044;-54
2021/12/05 12:42:00;;;;;;;78.37;40.63;;;;;;;4.03;72.11;98699.81;4372027;32;34209;-53
2021/12/05 12:44:29;;;;;;;73.95;39.13;;;;;;;4.09;72.11;98707.34;4372815;32;32888;-54
2021/12/05 12:46:59;;;;;;;73.12;39.75;;;;;;;4.06;72.27;98691.84;4371835;32;34783;-54
2021/12/05 12:49:30;;;;;;;77.20;40.03;;;;;;;4.22;71.78;98694.47;4359379;32;34105;-54
2021/12/05 12:52:08;;;;;;;75.25;40.30;;;;;;;4.38;71.01;98708.44;4372470;32;34210;-54
2021/12/05 12:54:55;;;;;;;113.70;54.00;;;;;;;4.21;71.95;98704.09;4372575;32;33072;-54
2021/12/05 12:57:26;;;;;;;77.07;42.35;;;;;;;4.66;78.95;98712.16;4372708;32;34025;-54
2021/12/05 12:59:56;;;;;;;71.10;42.88;;;;;;;4.66;75.64;98709.53;4372903;32;35131;-54
2021/12/05 13:11:13;;;;;;;52.58;32.00;;;;;;;4.56;70.75;98684.84;4373025;32;35494;-54
2021/12/05 13:13:43;;;;;;;52.08;31.62;;;;;;;4.49;70.92;98682.53;4372779;32;35114;-54
2021/12/05 13:16:27;;;;;;;52.92;32.38;;;;;;;4.59;70.06;98679.41;4372600;32;33342;-54
2021/12/05 13:19:22;;;;;;;54.75;32.80;;;;;;;4.53;70.27;98684.03;4372958;32;33367;-54
2021/12/05 13:22:04;;;;;;;58.00;32.08;;;;;;;3.88;72.72;98676.22;4372222;32;35263;-54
2021/12/05 13:24:41;;;;;;;56.15;33.50;;;;;;;4.10;71.52;98665.47;4372559;32;34653;-54
2021/12/05 13:27:26;;;;;;;61.85;34.92;;;;;;;4.14;71.19;98668.75;4372675;32;34069;-54
2021/12/05 13:29:56;;;;;;;60.10;34.53;;;;;;;4.01;71.79;98657.25;4373040;32;34267;-54
2021/12/05 13:32:29;;;;;;;64.55;36.53;;;;;;;4.10;71.94;98648.94;4372652;32;34461;-54
2021/12/05 13:35:00;;;;;;;61.65;34.30;;;;;;;3.97;72.45;98642.69;4371796;32;33754;-54
2021/12/05 13:37:37;;;;;;;63.05;34.38;;;;;;;4.10;71.83;98631.50;4372487;32;33096;-54
2021/12/05 13:40:12;;;;;;;64.20;35.20;;;;;;;4.28;71.34;98623.59;4372404;32;33594;-54
2021/12/05 13:42:50;;;;;;;65.97;37.55;;;;;;;4.22;72.11;98627.38;4372723;32;34247;-54
2021/12/05 13:45:19;;;;;;;70.30;41.42;;;;;;;4.29;72.00;98627.91;4372422;32;34302;-55
2021/12/05 13:47:52;;;;;;;69.32;38.72;;;;;;;4.53;71.07;98623.91;4372029;32;33456;-54
2021/12/05 13:50:22;;;;;;;67.60;36.95;;;;;;;4.60;71.12;98629.66;4372953;32;33622;-54
2021/12/05 13:52:59;;;;;;;74.78;39.40;;;;;;;4.46;71.46;98630.44;4372964;32;35513;-54
2021/12/05 13:55:30;;;;;;;78.22;40.17;;;;;;;4.14;72.21;98648.69;4371506;32;34468;-54
2021/12/05 13:58:35;;;;;;;91.93;42.05;;;;;;;4.07;72.58;98659.56;4357777;32;33646;-54
2021/12/05 14:01:36;;;;;;;85.93;42.25;;;;;;;3.83;73.38;98653.88;4365856;32;33441;-54
2021/12/05 14:04:18;;;;;;;84.32;41.17;;;;;;;4.29;71.73;98661.88;4344789;32;34432;-54
2021/12/05 14:06:47;;;;;;;90.60;43.83;;;;;;;4.28;71.99;98662.78;4371938;32;34980;-54
2021/12/05 14:09:31;;;;;;;92.30;43.90;;;;;;;3.87;73.31;98668.44;4371759;32;33202;-54
2021/12/05 14:12:15;;;;;;;94.37;43.47;;;;;;;4.01;73.13;98672.94;4372173;32;33340;-54
2021/12/05 14:14:46;;;;;;;99.68;42.50;;;;;;;3.64;74.37;98675.69;4358034;32;34515;-54
2021/12/05 14:17:34;;;;;;;94.65;44.92;;;;;;;4.06;72.67;98676.16;4372364;32;33760;-54
2021/12/05 14:20:11;;;;;;;104.33;44.87;;;;;;;4.18;72.30;98672.06;4372615;32;34514;-54
2021/12/05 14:22:41;;;;;;;103.03;45.97;;;;;;;4.00;72.84;98668.66;4372063;32;34388;-54
2021/12/05 14:25:12;;;;;;;108.78;45.33;;;;;;;3.81;73.83;98664.38;4371831;32;34041;-54
2021/12/05 14:27:46;;;;;;;116.12;47.75;;;;;;;4.01;73.13;98667.72;4372747;32;34196;-54
2021/12/05 14:30:19;;;;;;;109.90;47.13;;;;;;;3.83;73.77;98664.31;4372227;32;33701;-54
2021/12/05 14:32:47;;;;;;;110.25;48.70;;;;;;;3.97;73.49;98674.03;4373116;32;33541;-54
2021/12/05 14:35:28;;;;;;;121.37;49.00;;;;;;;3.87;73.94;98684.13;4374195;32;35168;-54
2021/12/05 14:37:56;;;;;;;116.20;47.97;;;;;;;4.13;73.13;98691.44;4358861;32;34227;-54
2021/12/05 14:40:32;;;;;;;110.18;45.78;;;;;;;4.13;73.00;98690.59;4359215;32;33287;-54
2021/12/05 14:43:06;;;;;;;114.53;45.33;;;;;;;4.01;73.70;98689.44;4360073;32;33585;-54
2021/12/05 14:45:37;;;;;;;115.00;45.38;;;;;;;4.09;73.41;98694.28;4372858;32;34630;-54
2021/12/05 14:48:11;;;;;;;114.20;46.58;;;;;;;3.87;74.12;98691.94;4373752;32;33941;-54
2021/12/05 14:50:51;;;;;;;115.05;47.40;;;;;;;4.00;73.71;98690.37;4372983;32;33690;-54
2021/12/05 14:53:22;;;;;;;113.57;46.45;;;;;;;4.33;72.71;98692.13;4372940;32;34573;-54
2021/12/05 14:55:56;;;;;;;123.75;46.17;;;;;;;4.07;73.51;98688.28;4373027;32;34491;-54
2021/12/05 14:58:27;;;;;;;115.75;47.35;;;;;;;3.92;73.60;98692.56;4373121;32;34233;-54
2021/12/05 15:00:57;;;;;;;111.00;47.53;;;;;;;4.10;73.41;98688.97;4372787;32;34424;-54
2021/12/05 15:03:27;;;;;;;125.97;48.35;;;;;;;4.11;73.10;98684.59;4378842;32;33527;-54
2021/12/05 15:06:03;;;;;;;110.28;46.50;;;;;;;4.20;72.58;98694.56;4372899;32;34122;-54
2021/12/05 15:08:31;;;;;;;122.53;50.08;;;;;;;4.14;72.94;98687.88;4372969;32;33726;-56
2021/12/05 15:11:04;;;;;;;122.87;47.35;;;;;;;4.12;73.07;98689.72;4373528;32;33233;-56
2021/12/05 15:13:32;;;;;;;126.05;50.08;;;;;;;4.13;73.07;98694.03;4359856;32;33752;-56
2021/12/05 15:16:01;;;;;;;135.43;48.87;;;;;;;4.13;72.95;98691.44;4372636;32;34932;-56
2021/12/05 15:18:32;;;;;;;139.85;51.58;;;;;;;4.28;72.55;98688.91;4372952;32;34448;-57
2021/12/05 15:21:00;;;;;;;151.40;54.17;;;;;;;4.21;75.13;98688.41;4372254;32;33162;-57
2021/12/05 15:23:30;;;;;;;120.43;49.55;;;;;;;4.35;74.29;98677.22;4372323;32;33520;-56
2021/12/05 15:26:00;;;;;;;123.40;47.70;;;;;;;4.43;72.77;98682.03;4359150;32;34456;-54
2021/12/05 15:28:28;;;;;;;151.70;50.28;;;;;;;4.09;73.39;98681.22;4372165;32;34483;-53
2021/12/05 15:30:56;;;;;;;121.45;48.03;;;;;;;3.94;74.00;98680.28;4371960;32;33138;-54
2021/12/05 15:33:25;;;;;;;123.28;50.03;;;;;;;4.01;73.27;98671.16;4373088;32;33374;-53
2021/12/05 15:35:55;;;;;;;127.03;47.85;;;;;;;4.18;72.95;98670.28;4373239;32;34129;-54
2021/12/05 15:38:27;;;;;;;149.38;52.92;;;;;;;4.09;72.88;98673.38;4373297;32;33687;-54
2021/12/05 15:41:01;;;;;;;225.57;65.65;;;;;;;4.23;76.24;98681.34;4372774;32;33989;-54
2021/12/05 15:43:31;;;;;;;162.15;55.83;;;;;;;4.20;74.99;98681.50;4372335;32;33678;-54
2021/12/05 15:46:00;;;;;;;155.30;50.60;;;;;;;4.32;76.54;98674.75;4369262;32;35670;-54
2021/12/05 15:48:31;;;;;;;145.75;51.92;;;;;;;4.25;74.80;98673.41;4373638;32;34669;-54
2021/12/05 15:51:02;;;;;;;134.87;48.95;;;;;;;3.90;74.79;98671.75;4373452;32;33790;-55
2021/12/05 15:53:31;;;;;;;138.10;49.42;;;;;;;4.22;76.51;98674.41;4373321;32;33036;-55
2021/12/05 15:56:02;;;;;;;140.20;49.70;;;;;;;4.08;75.61;98675.16;4373383;32;34050;-54
2021/12/05 15:58:40;;;;;;;144.00;50.50;;;;;;;4.06;74.37;98678.78;4373742;32;34126;-55
2021/12/05 16:01:15;;;;;;;;;;;;;;;3.79;75.35;98681.06;4360341;32;33515;-54
2021/12/05 16:03:46;;;;;;;142.87;50.58;;;;;;;4.26;73.22;98685.53;4380736;32;34851;-54
2021/12/05 16:06:15;;;;;;;144.85;51.05;;;;;;;4.12;73.37;98684.50;4384121;32;35426;-54
2021/12/05 16:08:45;;;;;;;124.75;47.85;;;;;;;3.88;74.36;98696.25;4373070;32;34299;-55
2021/12/05 16:11:16;;;;;;;127.97;49.50;;;;;;;4.26;73.28;98701.22;4373498;32;33636;-54
2021/12/05 16:13:47;;;;;;;126.55;48.72;;;;;;;4.01;73.76;98691.22;4373212;32;34183;-55
2021/12/05 16:16:18;;;;;;;143.57;51.95;;;;;;;4.09;73.75;98682.06;4372768;32;35351;-54
2021/12/05 16:18:49;;;;;;;128.23;49.53;;;;;;;4.09;76.53;98684.69;4373535;32;33752;-54
2021/12/05 16:21:18;;;;;;;129.45;48.87;;;;;;;4.07;75.61;98694.38;4372805;32;33773;-54
2021/12/05 16:23:49;;;;;;;120.82;48.90;;;;;;;4.13;75.01;98701.88;4372739;32;34559;-55
2021/12/05 16:26:21;;;;;;;121.60;47.72;;;;;;;4.36;73.56;98701.56;4372942;32;34607;-54
2021/12/05 16:29:04;;;;;;;117.75;47.30;;;;;;;3.97;74.37;98714.03;4373128;32;34666;-54
2021/12/05 16:31:37;;;;;;;110.25;45.80;;;;;;;4.08;73.99;98711.72;4358502;32;33162;-55
2021/12/05 16:34:10;;;;;;;111.03;46.50;;;;;;;4.08;74.12;98730.00;4358422;32;33501;-55
2021/12/05 16:36:47;;;;;;;114.28;45.53;;;;;;;4.27;73.42;98740.34;4358581;32;35070;-54
2021/12/05 16:39:21;;;;;;;107.25;44.95;;;;;;;4.17;73.61;98747.00;4360645;32;34735;-54
2021/12/05 16:41:51;;;;;;;124.93;51.15;;;;;;;3.95;74.54;98731.56;4373216;32;34209;-54
2021/12/05 16:44:23;;;;;;;121.93;48.83;;;;;;;3.99;74.51;98722.66;4373351;32;33756;-55
2021/12/05 16:46:59;;;;;;;118.37;48.55;;;;;;;4.21;73.86;98711.09;4373276;32;34042;-54
2021/12/05 16:49:33;;;;;;;117.22;46.72;;;;;;;4.42;73.03;98728.25;4372326;32;34857;-54
2021/12/05 16:52:05;;;;;;;104.03;44.08;;;;;;;4.22;74.04;98728.44;4372990;32;33121;-54
2021/12/05 16:54:42;;;;;;;111.60;45.70;;;;;;;4.03;74.43;98723.34;4372391;32;34081;-54
2021/12/05 16:57:18;;;;;;;108.90;43.33;;;;;;;4.09;74.29;98723.88;4358569;32;34287;-54
2021/12/05 17:00:00;;;;;;;94.62;41.10;;;;;;;4.42;73.28;98738.69;4372273;32;33840;-55
2021/12/05 17:02:34;;;;;;;89.45;39.95;;;;;;;4.42;74.68;98735.22;4386458;32;33100;-54
2021/12/05 17:05:17;;;;;;;95.80;41.65;;;;;;;4.32;74.57;98733.13;4361525;32;34509;-54
2021/12/05 17:08:10;;;;;;;92.47;40.58;;;;;;;4.37;77.23;98730.25;4370789;32;34589;-54
2021/12/05 17:10:56;;;;;;;82.50;38.33;;;;;;;4.74;79.63;98736.09;4372554;32;34479;-54
2021/12/05 17:13:29;;;;;;;80.50;38.30;;;;;;;4.76;77.68;98743.87;4373338;32;34213;-54
2021/12/05 17:16:01;;;;;;;77.35;37.40;;;;;;;4.76;77.90;98749.09;4366186;32;33472;-54
2021/12/05 17:18:56;;;;;;;71.00;37.38;;;;;;;4.78;75.61;98761.16;4372554;32;34538;-54
2021/12/05 17:21:35;;;;;;;83.75;38.05;;;;;;;4.70;75.55;98758.97;4372722;32;34681;-55